Terminal Aerodrome Forecast
Issued by NWS

Home | Current Version | Previous Version | Text Only | Print | Product List | Glossary On
Versions: 1 2 3 4 5 6 7 8 9 10 11 12 13 14 15 16 17 18 19 20
000
FTUS43 KJKL 300500 AAA
TAFSME
TAF AMD
KSME 300541Z 3006/0106 00000KT 1SM BR VV007
     FM300730 00000KT 1/4SM FG OVC002
     FM301300 00000KT 3SM BR BKN002
     FM301430 VRB03KT P6SM SKC=

USA.gov is the U.S. government's official web portal to all federal, state and local government web resources and services.